Time;durP1;ratioP1;P1;durP2;ratioP2;P2;SDS_P1;SDS_P2;PMS_P1;PMS_P2;Temp;Humidity;BMP_temperature;BMP_pressure;BME280_temperature;BME280_humidity;BME280_pressure;Samples;Min_cycle;Max_cycle;Signal;HPM_P1;HPM_P2
2024/01/22 00:01:49;;;;;;;6.53;2.83;;;;;;;7.93;100.00;100780.09;4934139;29;20070;-88
2024/01/22 00:04:15;;;;;;;4.28;2.20;;;;;;;7.95;100.00;100763.69;4934573;29;20024;-88
2024/01/22 00:06:43;;;;;;;2.83;1.95;;;;;;;8.01;100.00;100768.28;4934533;29;20035;-88
2024/01/22 00:09:16;;;;;;;6.65;2.20;;;;;;;7.94;100.00;100732.31;4935002;29;20058;-90
2024/01/22 00:11:42;;;;;;;6.47;2.30;;;;;;;7.64;100.00;100732.56;4936986;29;20087;-88
2024/01/22 00:14:07;;;;;;;7.33;2.60;;;;;;;7.55;100.00;100730.00;4909409;29;20139;-88
2024/01/22 00:16:38;;;;;;;4.43;2.33;;;;;;;7.60;100.00;100734.81;4915341;29;20032;-88
2024/01/22 00:19:03;;;;;;;3.10;2.00;;;;;;;7.60;100.00;100732.13;4916777;29;20464;-87
2024/01/22 00:21:29;;;;;;;3.85;2.15;;;;;;;7.67;100.00;100778.91;4916502;29;20063;-87
2024/01/22 00:23:58;;;;;;;4.70;1.90;;;;;;;7.65;100.00;100742.34;4899502;29;20481;-89
2024/01/22 00:26:26;;;;;;;5.50;2.25;;;;;;;7.61;100.00;100732.97;4899785;29;20082;-86
2024/01/22 00:28:52;;;;;;;6.18;2.30;;;;;;;7.77;100.00;100729.13;4915448;29;20073;-88
2024/01/22 00:31:17;;;;;;;4.17;1.83;;;;;;;7.70;100.00;100729.06;4899482;29;20036;-87
2024/01/22 00:33:52;;;;;;;6.75;2.45;;;;;;;7.58;100.00;100701.78;4915223;29;20089;-88
2024/01/22 00:36:23;;;;;;;6.60;2.05;;;;;;;7.81;100.00;100677.19;4915658;29;20045;-88
2024/01/22 00:38:48;;;;;;;4.47;2.50;;;;;;;7.77;100.00;100677.81;4899486;29;20458;-87
2024/01/22 00:41:14;;;;;;;5.75;2.30;;;;;;;7.78;100.00;100719.97;4917143;29;20082;-87
2024/01/22 00:43:41;;;;;;;4.83;1.80;;;;;;;7.92;100.00;100699.25;4899635;29;20126;-87
2024/01/22 00:46:09;;;;;;;3.63;1.70;;;;;;;8.01;100.00;100660.22;4916424;29;20337;-88
2024/01/22 00:48:39;;;;;;;3.88;1.83;;;;;;;8.18;100.00;100675.03;4918615;29;20119;-88
2024/01/22 00:51:12;;;;;;;4.27;2.30;;;;;;;8.20;100.00;100667.53;4919252;29;20138;-88
2024/01/22 00:53:37;;;;;;;5.15;2.00;;;;;;;8.20;100.00;100664.00;4919087;29;20047;-87
2024/01/22 00:56:06;;;;;;;4.70;2.20;;;;;;;8.29;100.00;100651.16;4919442;29;20025;-87
2024/01/22 00:58:31;;;;;;;3.80;2.03;;;;;;;8.38;100.00;100664.25;4919216;29;20056;-88
2024/01/22 01:00:57;;;;;;;3.22;1.67;;;;;;;8.35;100.00;100644.91;4919109;29;20056;-88
2024/01/22 01:03:24;;;;;;;4.10;1.93;;;;;;;8.39;100.00;100651.56;4919349;29;20126;-87
2024/01/22 01:05:57;;;;;;;3.50;1.85;;;;;;;8.42;100.00;100667.38;4919921;29;20028;-91
2024/01/22 01:08:32;;;;;;;3.38;1.58;;;;;;;8.48;100.00;100647.66;4900052;29;20131;-87
2024/01/22 01:10:58;;;;;;;3.50;1.50;;;;;;;8.47;100.00;100654.09;4884178;29;20048;-88
2024/01/22 01:13:26;;;;;;;3.90;1.85;;;;;;;8.41;100.00;100631.41;4883818;29;20493;-87
2024/01/22 01:15:51;;;;;;;3.47;1.40;;;;;;;8.53;100.00;100626.25;4884171;29;20037;-88
2024/01/22 01:18:17;;;;;;;3.58;1.52;;;;;;;8.58;100.00;100663.50;4901147;29;20489;-87
2024/01/22 01:20:42;;;;;;;3.43;1.60;;;;;;;8.65;100.00;100642.69;4868492;29;20127;-88
2024/01/22 01:23:10;;;;;;;3.97;1.60;;;;;;;8.68;100.00;100627.91;4884304;29;20035;-88
2024/01/22 01:25:37;;;;;;;4.57;1.60;;;;;;;8.73;100.00;100625.41;4899735;29;20040;-87
2024/01/22 01:28:02;;;;;;;3.58;2.00;;;;;;;8.80;100.00;100623.53;4899605;29;20036;-88
2024/01/22 01:30:35;;;;;;;2.97;1.50;;;;;;;8.76;100.00;100633.94;4899496;29;20035;-86
2024/01/22 01:33:02;;;;;;;6.35;1.60;;;;;;;8.78;100.00;100606.69;4884282;29;20069;-88
2024/01/22 01:35:31;;;;;;;2.17;1.13;;;;;;;8.94;100.00;100573.75;4908089;29;20047;-87
2024/01/22 01:37:56;;;;;;;3.05;1.10;;;;;;;8.83;100.00;100597.94;4919578;29;20036;-88
2024/01/22 01:40:24;;;;;;;3.03;1.40;;;;;;;8.85;100.00;100574.22;4918328;29;20060;-88
2024/01/22 01:42:50;;;;;;;2.70;1.35;;;;;;;8.83;100.00;100585.25;4918420;29;20039;-87
2024/01/22 01:45:16;;;;;;;2.00;1.00;;;;;;;8.93;100.00;100585.66;4918081;29;20118;-88
2024/01/22 01:47:45;;;;;;;2.55;1.10;;;;;;;8.82;100.00;100589.00;4918447;29;20062;-87
2024/01/22 01:50:14;;;;;;;2.97;1.50;;;;;;;8.92;100.00;100596.69;4918477;29;20038;-87
2024/01/22 01:52:39;;;;;;;4.78;1.67;;;;;;;9.06;100.00;100573.94;4918384;29;20040;-86
2024/01/22 01:55:07;;;;;;;2.83;1.40;;;;;;;9.05;100.00;100576.88;4918293;29;20111;-87
2024/01/22 01:57:35;;;;;;;3.10;1.17;;;;;;;9.00;100.00;100553.16;4918362;29;20036;-87
2024/01/22 02:00:04;;;;;;;3.85;1.40;;;;;;;9.00;100.00;100584.81;4917318;29;20032;-87
2024/01/22 02:02:30;;;;;;;2.85;1.05;;;;;;;8.95;100.00;100566.50;4918170;29;20059;-87
2024/01/22 02:04:55;;;;;;;3.95;1.40;;;;;;;8.95;100.00;100542.16;4918102;29;20040;-87
2024/01/22 02:07:21;;;;;;;4.13;1.30;;;;;;;8.94;100.00;100570.25;4902272;29;20036;-87
2024/01/22 02:09:47;;;;;;;3.33;1.27;;;;;;;8.95;100.00;100596.25;4917705;29;20063;-87
2024/01/22 02:12:13;;;;;;;5.85;1.30;;;;;;;9.10;100.00;100542.72;4918199;29;20123;-87
2024/01/22 02:14:38;;;;;;;4.53;1.40;;;;;;;8.98;100.00;100551.72;4902239;29;20135;-87
2024/01/22 02:17:04;;;;;;;2.57;0.97;;;;;;;9.02;100.00;100556.50;4901989;29;20073;-87
2024/01/22 02:19:32;;;;;;;2.73;1.20;;;;;;;8.94;100.00;100533.19;4917806;29;20396;-88
2024/01/22 02:22:01;;;;;;;2.08;1.10;;;;;;;8.97;100.00;100534.63;4901333;29;20273;-87
2024/01/22 02:24:27;;;;;;;2.50;1.17;;;;;;;9.02;100.00;100531.28;4918794;29;20105;-87
2024/01/22 02:26:52;;;;;;;4.55;1.13;;;;;;;9.05;100.00;100518.19;4918335;29;20497;-87
2024/01/22 02:29:18;;;;;;;2.70;1.17;;;;;;;8.94;100.00;100498.00;4901326;29;20469;-87
2024/01/22 02:31:45;;;;;;;4.80;1.13;;;;;;;9.00;100.00;100515.25;4917022;29;20032;-88
2024/01/22 02:34:13;;;;;;;4.07;0.98;;;;;;;9.09;100.00;100502.31;4917283;29;20040;-88
2024/01/22 02:36:39;;;;;;;2.67;1.00;;;;;;;9.16;100.00;100491.50;4917280;29;20083;-87
2024/01/22 02:39:04;;;;;;;2.03;1.20;;;;;;;9.03;100.00;100484.25;4917090;29;20055;-87
2024/01/22 02:41:30;;;;;;;3.40;1.17;;;;;;;8.91;100.00;100473.25;4916661;29;20031;-89
2024/01/22 02:44:00;;;;;;;2.78;1.50;;;;;;;8.65;100.00;100455.22;4902089;29;20363;-87
2024/01/22 02:46:25;;;;;;;3.78;1.52;;;;;;;8.48;100.00;100457.56;4908995;29;20039;-89
2024/01/22 02:48:51;;;;;;;4.50;1.52;;;;;;;8.48;100.00;100433.25;4919920;29;20495;-87
2024/01/22 02:51:19;;;;;;;2.67;1.27;;;;;;;8.42;100.00;100433.00;4920208;29;20059;-88
2024/01/22 02:53:45;;;;;;;2.25;0.90;;;;;;;8.29;100.00;100433.03;4920366;29;20027;-87
2024/01/22 02:56:10;;;;;;;2.78;1.15;;;;;;;8.51;100.00;100430.09;4920327;29;20058;-87
2024/01/22 02:58:39;;;;;;;3.40;1.00;;;;;;;8.51;100.00;100425.53;4937149;29;20106;-87
2024/01/22 03:01:04;;;;;;;3.97;1.23;;;;;;;8.25;100.00;100426.38;4919681;29;20020;-86
2024/01/22 03:03:30;;;;;;;2.70;1.33;;;;;;;8.11;100.00;100419.34;4919829;29;20083;-85
2024/01/22 03:05:55;;;;;;;2.13;1.23;;;;;;;8.08;100.00;100420.59;4919949;29;20040;-85
2024/01/22 03:08:21;;;;;;;3.67;1.10;;;;;;;8.11;100.00;100401.25;4904036;29;20523;-85
2024/01/22 03:10:46;;;;;;;2.42;1.60;;;;;;;8.00;100.00;100416.22;4903222;29;20099;-87
2024/01/22 03:13:12;;;;;;;2.47;1.20;;;;;;;8.02;100.00;100395.22;4921118;29;20098;-86
2024/01/22 03:15:37;;;;;;;5.23;1.50;;;;;;;8.00;100.00;100399.16;4938281;29;20043;-85
2024/01/22 03:18:03;;;;;;;2.80;1.70;;;;;;;8.01;100.00;100393.56;4936144;29;20438;-84
2024/01/22 03:20:28;;;;;;;3.67;1.25;;;;;;;8.05;100.00;100386.69;4936497;29;20031;-85
2024/01/22 03:22:53;;;;;;;3.10;1.20;;;;;;;8.02;100.00;100395.22;4935241;29;20024;-83
2024/01/22 03:25:21;;;;;;;3.60;1.53;;;;;;;8.11;100.00;100381.50;4919371;29;20039;-86
2024/01/22 03:27:46;;;;;;;3.03;1.42;;;;;;;8.10;100.00;100379.84;4935234;29;20036;-85
2024/01/22 03:30:12;;;;;;;3.27;1.20;;;;;;;8.08;100.00;100372.78;4936008;29;20062;-88
2024/01/22 03:32:37;;;;;;;5.00;1.70;;;;;;;8.06;100.00;100368.59;4935077;29;20436;-86
2024/01/22 03:35:03;;;;;;;3.83;1.30;;;;;;;8.20;100.00;100375.66;4917583;29;20039;-85
2024/01/22 03:37:28;;;;;;;3.10;1.40;;;;;;;8.16;100.00;100381.69;4936091;29;20369;-85
2024/01/22 03:39:54;;;;;;;2.10;1.27;;;;;;;8.16;100.00;100369.00;4934722;29;20036;-85
2024/01/22 03:42:19;;;;;;;2.63;1.20;;;;;;;8.28;100.00;100373.78;4934925;29;20031;-85
2024/01/22 03:44:44;;;;;;;2.47;1.55;;;;;;;8.26;100.00;100365.88;4918999;29;20032;-85
2024/01/22 03:47:10;;;;;;;2.60;1.08;;;;;;;8.29;100.00;100378.13;4934913;29;20034;-85
2024/01/22 03:49:35;;;;;;;2.13;1.03;;;;;;;8.34;100.00;100356.69;4933239;29;20232;-85
2024/01/22 03:52:01;;;;;;;2.90;0.83;;;;;;;8.31;100.00;100344.47;4918993;29;20047;-86
2024/01/22 03:54:26;;;;;;;3.57;1.10;;;;;;;8.37;100.00;100362.53;4934784;29;20040;-85
2024/01/22 03:56:52;;;;;;;2.00;0.90;;;;;;;8.48;100.00;100349.41;4934452;29;20032;-86
2024/01/22 03:59:20;;;;;;;1.53;0.77;;;;;;;8.66;100.00;100365.75;4935937;29;20024;-85
2024/01/22 04:01:46;;;;;;;3.40;1.23;;;;;;;8.56;100.00;100341.06;4934232;29;20046;-85
2024/01/22 04:04:12;;;;;;;2.63;1.10;;;;;;;8.57;100.00;100343.53;4934463;29;20032;-85
2024/01/22 04:06:37;;;;;;;2.97;1.23;;;;;;;8.51;100.00;100368.75;4934522;29;20038;-85
2024/01/22 04:09:02;;;;;;;1.50;0.63;;;;;;;8.61;100.00;100341.25;4935420;29;20435;-85
2024/01/22 04:11:28;;;;;;;1.40;1.00;;;;;;;8.62;100.00;100323.97;4934505;29;20067;-85
2024/01/22 04:13:53;;;;;;;1.80;0.90;;;;;;;8.63;100.00;100351.84;4918470;29;20060;-88
2024/01/22 04:16:19;;;;;;;2.83;1.10;;;;;;;8.63;100.00;100349.16;4934466;29;20428;-86
2024/01/22 04:18:44;;;;;;;3.03;1.52;;;;;;;8.55;100.00;100340.22;4934640;29;20035;-85
2024/01/22 04:21:10;;;;;;;2.57;0.90;;;;;;;8.62;100.00;100353.72;4936439;29;20488;-85
2024/01/22 04:23:36;;;;;;;2.20;0.93;;;;;;;8.58;100.00;100328.97;4930289;29;20039;-86
2024/01/22 04:26:03;;;;;;;2.40;0.90;;;;;;;8.59;100.00;100329.81;4941316;29;20494;-85
2024/01/22 04:28:28;;;;;;;2.58;0.95;;;;;;;8.71;100.00;100324.53;4957471;29;20278;-85
2024/01/22 04:30:54;;;;;;;3.05;1.02;;;;;;;8.72;100.00;100337.03;4941480;29;20044;-86
2024/01/22 04:33:19;;;;;;;2.53;1.00;;;;;;;8.66;100.00;100327.09;4941728;29;20545;-86
2024/01/22 04:35:45;;;;;;;1.10;0.73;;;;;;;8.71;100.00;100324.53;4926176;29;20035;-85
2024/01/22 04:38:10;;;;;;;2.17;0.70;;;;;;;8.77;100.00;100334.53;4925453;29;20039;-85
2024/01/22 04:40:36;;;;;;;2.35;0.90;;;;;;;8.78;100.00;100325.34;4940742;29;20042;-85
2024/01/22 04:43:03;;;;;;;1.40;0.70;;;;;;;8.85;100.00;100338.84;4957409;29;20042;-85
2024/01/22 04:45:28;;;;;;;1.52;0.77;;;;;;;8.86;100.00;100335.06;4941140;29;20027;-86
2024/01/22 04:47:54;;;;;;;1.23;0.90;;;;;;;8.93;100.00;100325.06;4958970;29;20031;-85
2024/01/22 04:50:19;;;;;;;2.03;0.80;;;;;;;8.94;100.00;100303.19;4925415;29;20549;-86
2024/01/22 04:52:45;;;;;;;2.03;0.60;;;;;;;9.03;100.00;100336.22;4941546;29;20535;-85
2024/01/22 04:55:10;;;;;;;1.23;0.60;;;;;;;9.21;100.00;100327.41;4941052;29;20050;-87
2024/01/22 04:57:35;;;;;;;1.97;0.70;;;;;;;9.38;100.00;100316.84;4941258;29;20427;-86
2024/01/22 05:00:02;;;;;;;4.73;0.90;;;;;;;9.37;100.00;100311.66;4925109;29;20035;-86
2024/01/22 05:02:27;;;;;;;1.90;0.60;;;;;;;9.42;100.00;100306.38;4958257;29;20031;-85
2024/01/22 05:05:01;;;;;;;2.30;0.70;;;;;;;9.45;100.00;100305.97;4946646;29;20031;-86
2024/01/22 05:07:26;;;;;;;1.77;0.52;;;;;;;9.55;100.00;100322.53;4938086;29;20042;-86
2024/01/22 05:10:01;;;;;;;1.40;0.70;;;;;;;9.58;100.00;100323.97;4938772;29;20040;-85
2024/01/22 05:12:27;;;;;;;1.23;0.60;;;;;;;9.64;100.00;100329.34;4937604;29;20123;-86
2024/01/22 05:14:53;;;;;;;2.85;0.55;;;;;;;9.58;100.00;100318.53;4938981;29;20134;-86
2024/01/22 05:17:18;;;;;;;3.30;0.50;;;;;;;9.55;100.00;100321.69;4938772;29;20372;-85
2024/01/22 05:19:43;;;;;;;2.73;0.70;;;;;;;9.51;100.00;100296.09;4921605;29;20036;-85
2024/01/22 05:22:09;;;;;;;3.65;0.88;;;;;;;9.56;100.00;100318.75;4937278;29;20473;-85
2024/01/22 05:24:35;;;;;;;2.93;0.70;;;;;;;9.66;100.00;100321.81;4938344;29;20036;-86
2024/01/22 05:27:03;;;;;;;2.70;0.77;;;;;;;9.77;100.00;100324.84;4920970;29;20481;-85
2024/01/22 05:29:28;;;;;;;1.65;0.63;;;;;;;9.76;100.00;100315.06;4937174;29;20496;-85
2024/01/22 05:31:54;;;;;;;2.67;0.80;;;;;;;9.64;100.00;100321.22;4937246;29;20039;-85
2024/01/22 05:34:19;;;;;;;2.08;0.60;;;;;;;9.65;100.00;100314.75;4937086;29;20059;-85
2024/01/22 05:36:44;;;;;;;2.03;0.65;;;;;;;9.61;100.00;100331.63;4920844;29;20042;-85
2024/01/22 05:39:10;;;;;;;2.23;0.80;;;;;;;9.56;100.00;100326.06;4936519;29;20412;-85
2024/01/22 05:41:36;;;;;;;2.50;0.70;;;;;;;9.57;100.00;100333.16;4936863;29;20087;-85
2024/01/22 05:44:01;;;;;;;1.10;0.52;;;;;;;9.55;100.00;100325.25;4936953;29;20035;-85
2024/01/22 05:46:27;;;;;;;1.80;0.60;;;;;;;9.50;100.00;100330.50;4905120;29;20059;-84
2024/01/22 05:48:55;;;;;;;2.13;0.88;;;;;;;9.50;100.00;100329.66;4920805;29;20067;-85
2024/01/22 05:51:21;;;;;;;1.90;0.75;;;;;;;9.43;100.00;100327.84;4936425;29;20091;-85
2024/01/22 05:53:46;;;;;;;3.10;0.80;;;;;;;9.46;100.00;100335.53;4936828;29;20035;-84
2024/01/22 05:56:32;;;;;;;2.37;0.77;;;;;;;9.46;100.00;100340.94;4921013;29;20044;-84
2024/01/22 05:58:58;;;;;;;3.10;0.70;;;;;;;9.43;100.00;100352.22;4920254;29;20111;-85
2024/01/22 06:01:25;;;;;;;4.23;0.90;;;;;;;9.43;100.00;100335.97;4920928;29;20039;-84
2024/01/22 06:03:51;;;;;;;3.38;0.68;;;;;;;9.42;100.00;100342.44;4936771;29;20087;-84
2024/01/22 06:06:17;;;;;;;3.15;0.82;;;;;;;9.39;100.00;100344.72;4936697;29;20039;-84
2024/01/22 06:08:43;;;;;;;3.37;0.80;;;;;;;9.37;100.00;100357.66;4937909;29;20404;-84
2024/01/22 06:11:10;;;;;;;3.28;0.85;;;;;;;9.38;100.00;100334.97;4904364;29;20055;-84
2024/01/22 06:13:39;;;;;;;3.33;0.80;;;;;;;9.39;100.00;100369.94;4936431;29;20058;-83
2024/01/22 06:16:11;;;;;;;6.97;1.50;;;;;;;9.36;100.00;100378.50;4921100;29;20057;-82
2024/01/22 06:18:37;;;;;;;3.00;1.10;;;;;;;9.37;100.00;100338.72;4937860;29;20243;-83
2024/01/22 06:21:04;;;;;;;3.60;1.20;;;;;;;9.46;100.00;100331.97;4936573;29;20039;-83
2024/01/22 06:23:30;;;;;;;1.92;0.90;;;;;;;9.44;100.00;100320.53;4936576;29;20122;-83
2024/01/22 06:25:56;;;;;;;3.65;1.00;;;;;;;9.39;100.00;100326.63;4936691;29;20135;-84
2024/01/22 06:28:23;;;;;;;3.63;1.00;;;;;;;9.40;100.00;100336.38;4937798;29;20042;-83
2024/01/22 06:30:48;;;;;;;2.53;0.97;;;;;;;9.41;100.00;100343.47;4936623;29;20042;-83
2024/01/22 06:33:14;;;;;;;3.22;1.00;;;;;;;9.39;100.00;100358.28;4920870;29;20110;-83
2024/01/22 06:35:39;;;;;;;2.80;1.20;;;;;;;9.43;100.00;100344.09;4935687;29;20476;-86
2024/01/22 06:38:05;;;;;;;3.93;1.20;;;;;;;9.41;100.00;100337.25;4935514;29;20127;-85
2024/01/22 06:40:33;;;;;;;1.58;0.95;;;;;;;9.42;100.00;100334.31;4920035;29;20179;-85
2024/01/22 06:43:01;;;;;;;3.28;0.90;;;;;;;9.37;100.00;100336.84;4935625;29;20063;-86
2024/01/22 06:45:29;;;;;;;2.70;0.75;;;;;;;9.41;100.00;100310.97;4919814;29;20130;-86
2024/01/22 06:47:54;;;;;;;2.88;0.85;;;;;;;9.38;100.00;100356.63;4935617;29;20115;-85
2024/01/22 06:50:20;;;;;;;6.22;0.70;;;;;;;9.45;100.00;100376.38;4904199;29;20491;-85
2024/01/22 06:52:46;;;;;;;2.03;1.30;;;;;;;9.45;100.00;100369.06;4935966;29;20035;-85
2024/01/22 06:55:12;;;;;;;1.40;0.60;;;;;;;9.47;100.00;100383.19;4936928;29;20039;-86
2024/01/22 06:57:38;;;;;;;1.00;0.70;;;;;;;9.44;100.00;100389.06;4936201;29;20035;-85
2024/01/22 07:00:07;;;;;;;1.70;0.90;;;;;;;9.46;100.00;100373.44;4936892;29;20028;-85
2024/01/22 07:02:33;;;;;;;2.05;0.90;;;;;;;9.48;100.00;100400.31;4935522;29;20044;-84
2024/01/22 07:04:59;;;;;;;2.30;1.00;;;;;;;9.46;100.00;100368.03;4935352;29;20480;-84
2024/01/22 07:07:25;;;;;;;1.30;0.90;;;;;;;9.45;100.00;100365.53;4936520;29;20206;-84
2024/01/22 07:09:51;;;;;;;2.40;1.10;;;;;;;9.43;100.00;100375.75;4935312;29;20036;-84
2024/01/22 07:12:18;;;;;;;4.85;1.00;;;;;;;9.48;100.00;100357.78;4919070;29;20042;-84
2024/01/22 07:14:43;;;;;;;4.53;1.10;;;;;;;9.47;100.00;100379.69;4920914;29;20489;-84
2024/01/22 07:17:09;;;;;;;3.13;0.97;;;;;;;9.43;100.00;100373.03;4916711;29;20036;-87
2024/01/22 07:19:34;;;;;;;2.23;1.13;;;;;;;9.39;100.00;100382.63;4867205;29;20492;-84
2024/01/22 07:22:00;;;;;;;2.57;1.13;;;;;;;9.43;100.00;100378.44;4916332;29;20037;-83
2024/01/22 07:24:25;;;;;;;4.03;1.25;;;;;;;9.42;100.00;100374.94;4928322;29;20039;-83
2024/01/22 07:26:51;;;;;;;5.57;1.40;;;;;;;9.46;100.00;100353.63;4915967;29;20091;-85
2024/01/22 07:29:16;;;;;;;3.17;1.42;;;;;;;9.43;100.00;100382.00;4915305;29;20552;-84
2024/01/22 07:31:42;;;;;;;5.13;1.33;;;;;;;9.43;100.00;100378.44;4903634;29;20498;-85
2024/01/22 07:34:07;;;;;;;3.70;1.37;;;;;;;9.40;100.00;100374.28;4896576;29;20033;-84
2024/01/22 07:36:33;;;;;;;2.90;1.10;;;;;;;9.52;100.00;100379.84;4899546;29;20036;-84
2024/01/22 07:38:58;;;;;;;8.75;1.60;;;;;;;9.44;100.00;100367.41;4910940;29;20028;-84
2024/01/22 07:41:24;;;;;;;7.90;1.57;;;;;;;9.57;100.00;100381.91;4899600;29;20389;-84
2024/01/22 07:43:50;;;;;;;2.78;0.90;;;;;;;9.52;100.00;100392.56;4899597;29;20059;-83
2024/01/22 07:46:15;;;;;;;6.25;1.30;;;;;;;9.56;100.00;100412.75;4915184;29;20055;-84
2024/01/22 07:48:40;;;;;;;6.87;1.47;;;;;;;9.47;100.00;100393.22;4915986;29;20032;-83
2024/01/22 07:51:06;;;;;;;7.37;1.40;;;;;;;9.48;100.00;100389.47;4899520;29;20532;-81
2024/01/22 07:53:31;;;;;;;11.43;1.60;;;;;;;9.44;100.00;100391.78;4915444;29;20445;-83
2024/01/22 07:55:57;;;;;;;9.35;1.35;;;;;;;9.44;100.00;100380.94;4915086;29;20502;-83
2024/01/22 07:58:55;;;;;;;13.88;2.42;;;;;;;9.46;100.00;100386.13;4915292;29;20111;-81
2024/01/22 08:01:22;;;;;;;11.50;1.35;;;;;;;9.42;100.00;100372.22;4895327;29;20056;-83
2024/01/22 08:03:48;;;;;;;13.87;1.30;;;;;;;9.38;100.00;100368.28;4892694;29;20104;-81
2024/01/22 08:06:13;;;;;;;9.18;1.38;;;;;;;9.44;100.00;100367.41;4915928;29;20549;-83
2024/01/22 08:08:40;;;;;;;12.20;1.83;;;;;;;9.49;100.00;100377.56;4912736;29;20040;-84
2024/01/22 08:11:05;;;;;;;13.18;2.00;;;;;;;9.47;100.00;100380.50;4904308;29;20484;-82
2024/01/22 08:13:30;;;;;;;11.33;2.13;;;;;;;9.49;100.00;100382.97;4899382;29;20055;-84
2024/01/22 08:15:56;;;;;;;21.37;2.67;;;;;;;9.47;100.00;100379.69;4916331;29;20048;-84
2024/01/22 08:18:22;;;;;;;22.77;3.25;;;;;;;9.50;100.00;100373.00;4934153;29;20043;-82
2024/01/22 08:20:47;;;;;;;23.07;2.27;;;;;;;9.50;100.00;100391.97;4934285;29;20036;-83
2024/01/22 08:23:13;;;;;;;20.42;2.67;;;;;;;9.50;100.00;100414.44;4910131;29;20046;-82
2024/01/22 08:25:38;;;;;;;25.43;2.80;;;;;;;9.50;100.00;100405.50;4934380;29;20032;-82
2024/01/22 08:28:04;;;;;;;24.17;2.87;;;;;;;9.47;100.00;100394.03;4934260;29;20459;-82
2024/01/22 08:30:29;;;;;;;23.13;3.00;;;;;;;9.45;100.00;100408.88;4931682;29;20028;-83
2024/01/22 08:32:55;;;;;;;17.38;2.78;;;;;;;9.47;100.00;100406.75;4931162;29;20028;-83
2024/01/22 08:35:21;;;;;;;20.90;2.50;;;;;;;9.44;100.00;100443.22;4934003;29;20032;-82
2024/01/22 08:37:50;;;;;;;15.85;2.70;;;;;;;9.41;100.00;100413.88;4930840;29;20044;-86
2024/01/22 08:40:19;;;;;;;16.55;2.45;;;;;;;9.41;100.00;100429.28;4933947;29;20028;-82
2024/01/22 08:42:45;;;;;;;19.58;2.00;;;;;;;9.40;100.00;100439.28;4915562;29;20504;-82
2024/01/22 08:45:11;;;;;;;22.23;2.47;;;;;;;9.35;100.00;100425.59;4918820;29;20040;-83
2024/01/22 08:47:36;;;;;;;14.07;2.03;;;;;;;9.41;100.00;100457.19;4913061;29;20042;-85
2024/01/22 08:50:02;;;;;;;25.87;3.13;;;;;;;9.35;100.00;100439.13;4918367;29;20039;-82
2024/01/22 08:52:27;;;;;;;15.33;2.00;;;;;;;9.42;100.00;100456.16;4921851;29;20404;-83
2024/01/22 08:54:53;;;;;;;21.10;3.27;;;;;;;9.42;100.00;100423.66;4918164;29;20028;-84
2024/01/22 08:57:19;;;;;;;20.93;3.30;;;;;;;9.38;100.00;100432.44;4922405;29;20052;-84
2024/01/22 08:59:44;;;;;;;13.00;2.00;;;;;;;9.36;100.00;100442.66;4918195;29;20067;-83
2024/01/22 09:02:09;;;;;;;22.90;2.17;;;;;;;9.28;100.00;100441.84;4933736;29;20149;-83
2024/01/22 09:04:35;;;;;;;12.55;2.20;;;;;;;9.28;100.00;100443.72;4917191;29;20287;-82
2024/01/22 09:07:00;;;;;;;15.73;1.93;;;;;;;9.28;100.00;100430.19;4933099;29;20067;-82
2024/01/22 09:09:27;;;;;;;20.00;2.70;;;;;;;9.22;100.00;100440.00;4936435;29;20126;-83
2024/01/22 09:11:52;;;;;;;23.13;3.20;;;;;;;9.28;100.00;100430.19;4937585;29;20071;-82
2024/01/22 09:14:18;;;;;;;28.43;2.60;;;;;;;9.22;100.00;100431.88;4937680;29;20079;-82
2024/01/22 09:16:43;;;;;;;15.33;1.90;;;;;;;9.21;100.00;100430.25;4937434;29;20468;-82
2024/01/22 09:19:08;;;;;;;18.38;2.47;;;;;;;9.18;100.00;100441.47;4937491;29;20042;-82
2024/01/22 09:21:34;;;;;;;20.70;2.63;;;;;;;9.21;100.00;100422.13;4923916;29;20043;-82
2024/01/22 09:24:01;;;;;;;22.67;2.97;;;;;;;9.20;100.00;100420.47;4919704;29;20035;-82
2024/01/22 09:26:26;;;;;;;26.48;3.70;;;;;;;9.19;100.00;100415.28;4918083;29;20039;-82
2024/01/22 09:28:53;;;;;;;16.33;2.57;;;;;;;9.24;100.00;100423.56;4921416;29;20130;-82
2024/01/22 09:31:19;;;;;;;17.48;1.90;;;;;;;9.26;100.00;100424.19;4917413;29;20127;-82
2024/01/22 09:33:45;;;;;;;16.93;2.23;;;;;;;9.26;100.00;100410.66;4933610;29;20114;-82
2024/01/22 09:36:11;;;;;;;17.08;2.50;;;;;;;9.24;100.00;100421.69;4933994;29;20036;-81
2024/01/22 09:38:40;;;;;;;18.40;2.03;;;;;;;9.26;100.00;100462.91;4917980;29;20060;-83
2024/01/22 09:41:06;;;;;;;23.48;2.88;;;;;;;9.24;100.00;100429.81;4933453;29;20040;-82
2024/01/22 09:43:32;;;;;;;12.00;1.80;;;;;;;9.26;100.00;100419.59;4920648;29;20047;-83
2024/01/22 09:45:58;;;;;;;20.33;2.30;;;;;;;9.26;100.00;100440.44;4920851;29;20039;-82
2024/01/22 09:48:23;;;;;;;21.02;3.08;;;;;;;9.28;100.00;100441.84;4938187;29;20035;-82
2024/01/22 09:50:51;;;;;;;8.13;1.57;;;;;;;9.33;100.00;100441.22;4937045;29;20036;-81
2024/01/22 09:53:17;;;;;;;9.77;2.08;;;;;;;9.39;100.00;100450.34;4920411;29;20459;-81
2024/01/22 09:55:42;;;;;;;15.48;2.45;;;;;;;9.33;100.00;100471.00;4936592;29;20040;-82
2024/01/22 09:58:09;;;;;;;15.77;2.20;;;;;;;9.30;100.00;100455.16;4918400;29;20152;-81
2024/01/22 10:00:37;;;;;;;13.32;1.73;;;;;;;9.33;100.00;100451.19;4920749;29;20031;-82
2024/01/22 10:03:03;;;;;;;10.45;1.45;;;;;;;9.31;100.00;100481.19;4917071;29;20134;-84
2024/01/22 10:05:29;;;;;;;13.20;2.25;;;;;;;9.36;100.00;100464.31;4940460;29;20509;-82
2024/01/22 10:07:55;;;;;;;12.32;1.90;;;;;;;9.37;100.00;100488.44;4954600;29;20039;-84
2024/01/22 10:10:21;;;;;;;8.73;1.50;;;;;;;9.40;100.00;100493.44;4920656;29;20429;-83
2024/01/22 10:13:05;;;;;;;15.07;2.70;;;;;;;9.39;100.00;100485.53;4921008;29;20107;-82
2024/01/22 10:15:34;;;;;;;8.90;1.75;;;;;;;9.41;100.00;100497.81;4937458;29;20082;-83
2024/01/22 10:18:08;;;;;;;9.00;1.55;;;;;;;9.37;100.00;100510.13;4936316;29;20031;-85
2024/01/22 10:20:34;;;;;;;11.00;1.55;;;;;;;9.34;100.00;100515.16;4935122;29;20126;-85
2024/01/22 10:23:03;;;;;;;11.57;1.63;;;;;;;9.33;100.00;100578.44;4920317;29;20501;-83
2024/01/22 10:25:29;;;;;;;14.48;2.20;;;;;;;9.12;100.00;100583.94;4920435;29;20032;-82
2024/01/22 10:28:16;;;;;;;14.43;1.88;;;;;;;8.67;100.00;100581.09;4937475;29;20032;-82
2024/01/22 10:30:44;;;;;;;18.35;2.60;;;;;;;8.17;100.00;100584.16;4920325;29;20388;-83
2024/01/22 10:33:17;;;;;;;23.75;2.90;;;;;;;7.92;100.00;100548.81;4935855;29;20028;-83
2024/01/22 10:35:45;;;;;;;18.90;2.88;;;;;;;7.78;100.00;100566.00;4920361;29;20392;-83
2024/01/22 10:38:19;;;;;;;23.65;2.85;;;;;;;7.65;100.00;100578.44;4935917;29;20448;-83
2024/01/22 10:40:46;;;;;;;23.80;3.00;;;;;;;7.60;100.00;100575.50;4919754;29;20036;-82
2024/01/22 10:43:21;;;;;;;33.60;2.83;;;;;;;7.59;100.00;100600.00;4936056;29;20075;-83
2024/01/22 10:45:48;;;;;;;28.88;3.38;;;;;;;7.59;100.00;100586.50;4919799;29;20039;-83
2024/01/22 10:48:18;;;;;;;32.53;3.30;;;;;;;7.56;100.00;100585.06;4919926;29;20465;-83
2024/01/22 10:50:44;;;;;;;24.17;3.28;;;;;;;7.57;100.00;100584.00;4920185;29;20983;-83
2024/01/22 10:53:13;;;;;;;37.88;3.63;;;;;;;7.60;100.00;100585.47;4919908;29;20480;-83
2024/01/22 10:55:39;;;;;;;33.05;4.47;;;;;;;7.60;100.00;100593.59;4920054;29;20028;-83
2024/01/22 10:58:28;;;;;;;38.85;4.68;;;;;;;7.63;100.00;100594.03;4937376;29;20028;-82
2024/01/22 11:01:00;;;;;;;36.83;3.83;;;;;;;7.69;100.00;100586.97;4935834;29;20044;-83
2024/01/22 11:03:35;;;;;;;32.95;3.70;;;;;;;7.71;100.00;100598.41;4935884;29;20028;-83
2024/01/22 11:06:04;;;;;;;38.33;4.47;;;;;;;7.76;100.00;100581.59;4919897;29;20126;-83
2024/01/22 11:08:32;;;;;;;38.55;4.80;;;;;;;7.82;100.00;100599.69;4920559;29;20050;-82
2024/01/22 11:10:59;;;;;;;32.45;4.45;;;;;;;7.82;100.00;100616.72;4919292;29;20058;-83
2024/01/22 11:13:25;;;;;;;35.08;4.55;;;;;;;7.82;100.00;100614.00;4936426;29;20035;-83
2024/01/22 11:15:51;;;;;;;35.08;4.88;;;;;;;7.81;100.00;100601.56;4936189;29;20082;-83
2024/01/22 11:18:16;;;;;;;40.97;4.77;;;;;;;7.85;100.00;100629.00;4903807;29;20501;-82
2024/01/22 11:20:42;;;;;;;58.00;6.70;;;;;;;7.83;100.00;100617.56;4919191;29;20087;-84